Leeper, Pennsylvania
Current Conditions -  °F | °C
As of 2:53 PM on Friday 31 Oct 2014 (Local Time) from KDUJ Reporting Station
Overcast Overcast  
Wind Chill: 43°   Ceiling: 2400
Heat Index: 43°   Visibility: 8mi
Dew Point: 38°   Wind: 0mph
Humidity: 82%   Direction: NA
Pressure: 29.85"   Gusts: NA
Location:  41.37°N, 79.3°W
Report Text: KDUJ 311853Z AUTO 00000KT 8SM BKN024 OVC030 06/03 A2985 RMK AO2 RAB08E35 SLP118 P0002 T00610033
Loading
Personal Weather Stations






























Interactive Weather Map
Tropical Storm Tracking
New forecast layout! Learn more

10-Day Weather Forecast

Advertisements
Track Severe Weather on mobile